Time;durP1;ratioP1;P1;durP2;ratioP2;P2;SDS_P1;SDS_P2;PMS_P1;PMS_P2;Temp;Humidity;BMP_temperature;BMP_pressure;BME280_temperature;BME280_humidity;BME280_pressure;Samples;Min_cycle;Max_cycle;Signal;HPM_P1;HPM_P2
2023/07/18 00:00:27;;;;;;;10.55;5.93;;;31.50;31.50;;;;;;20914277;28;20045;-57
2023/07/18 00:10:28;;;;;;;15.55;4.75;;;31.40;29.70;;;;;;20913548;28;20045;-58
2023/07/18 00:20:30;;;;;;;15.43;5.20;;;31.30;26.60;;;;;;20913333;28;20106;-57
2023/07/18 00:30:31;;;;;;;11.70;5.40;;;31.30;26.70;;;;;;20918861;28;20048;-57
2023/07/18 00:40:33;;;;;;;11.50;6.07;;;31.10;26.70;;;;;;20929551;28;20383;-56
2023/07/18 00:50:34;;;;;;;16.38;5.97;;;31.00;26.70;;;;;;20927671;28;20045;-56
2023/07/18 01:00:34;;;;;;;11.80;5.15;;;31.00;26.80;;;;;;20926930;28;20048;-56
2023/07/18 01:10:38;;;;;;;13.30;4.90;;;30.80;27.50;;;;;;20927296;28;20524;-57
2023/07/18 01:20:40;;;;;;;12.00;5.05;;;30.70;28.30;;;;;;20924606;28;20083;-58
2023/07/18 01:30:41;;;;;;;15.68;4.88;;;30.60;30.10;;;;;;20919388;28;20091;-56
2023/07/18 01:40:41;;;;;;;13.25;5.82;;;30.60;29.40;;;;;;20919863;28;20036;-57
2023/07/18 01:50:43;;;;;;;15.32;5.40;;;30.60;29.60;;;;;;20919269;28;20044;-55
2023/07/18 02:00:44;;;;;;;11.30;5.65;;;30.50;31.50;;;;;;20919014;28;20072;-56
2023/07/18 02:10:44;;;;;;;12.18;4.10;;;30.50;33.50;;;;;;20918354;28;20098;-57
2023/07/18 02:20:45;;;;;;;9.40;4.30;;;30.40;35.00;;;;;;20877504;28;1155685;-57
2023/07/18 02:30:46;;;;;;;13.60;4.75;;;30.30;35.80;;;;;;20921103;28;20041;-56
2023/07/18 02:40:47;;;;;;;11.57;4.38;;;30.20;36.60;;;;;;20919379;28;20044;-57
2023/07/18 02:50:49;;;;;;;13.70;4.70;;;30.20;36.70;;;;;;20918701;28;20538;-56
2023/07/18 03:00:52;;;;;;;14.25;4.80;;;30.10;37.40;;;;;;20917561;28;20048;-56
2023/07/18 03:10:53;;;;;;;11.88;4.82;;;30.10;38.30;;;;;;20917764;28;20041;-56
2023/07/18 03:20:54;;;;;;;11.52;5.47;;;30.00;38.40;;;;;;20916723;28;20056;-57
2023/07/18 03:30:54;;;;;;;8.35;4.75;;;29.60;38.70;;;;;;20916546;28;20052;-57
2023/07/18 03:40:57;;;;;;;12.18;5.22;;;29.50;39.60;;;;;;20914359;28;20044;-56
2023/07/18 03:51:04;;;;;;;9.50;4.88;;;29.10;37.80;;;;;;20914689;28;20509;-57
2023/07/18 04:01:10;;;;;;;12.90;5.65;;;28.60;38.10;;;;;;20913230;28;20188;-56
2023/07/18 04:11:11;;;;;;;14.07;6.00;;;28.20;38.00;;;;;;20913947;28;20045;-57
2023/07/18 04:21:12;;;;;;;10.40;6.68;;;27.90;38.40;;;;;;20912933;28;20418;-56
2023/07/18 04:31:13;;;;;;;;;;;27.70;38.60;;;;;;20913391;28;20045;-56
2023/07/18 04:41:14;;;;;;;16.60;6.30;;;27.40;38.80;;;;;;20911448;28;19928;-56
2023/07/18 04:51:16;;;;;;;13.02;5.57;;;27.40;38.50;;;;;;20910986;28;20041;-56
2023/07/18 05:01:17;;;;;;;11.95;5.60;;;27.20;38.40;;;;;;20910513;28;20114;-56
2023/07/18 05:11:18;;;;;;;16.90;6.53;;;27.00;38.70;;;;;;20911116;28;20485;-56
2023/07/18 05:21:18;;;;;;;14.90;6.13;;;26.90;39.00;;;;;;20922993;28;20049;-57
2023/07/18 05:31:20;;;;;;;13.13;5.87;;;26.70;39.20;;;;;;20925532;28;20045;-57
2023/07/18 05:41:21;;;;;;;12.30;6.05;;;26.80;39.50;;;;;;20924951;28;20099;-58
2023/07/18 05:51:22;;;;;;;12.40;6.70;;;27.00;39.50;;;;;;20923920;28;20045;-57
2023/07/18 06:01:22;;;;;;;9.73;6.00;;;27.10;39.80;;;;;;20922979;28;20051;-57
2023/07/18 06:11:23;;;;;;;14.17;5.90;;;27.10;40.00;;;;;;20922256;28;20049;-57
2023/07/18 06:21:26;;;;;;;16.70;6.37;;;27.20;40.20;;;;;;20920162;28;20110;-56
2023/07/18 06:31:28;;;;;;;15.77;5.93;;;27.30;41.00;;;;;;20919177;28;20294;-56
2023/07/18 06:41:28;;;;;;;15.23;6.25;;;27.30;41.00;;;;;;20919964;28;20186;-56
2023/07/18 06:51:29;;;;;;;14.17;6.77;;;27.40;41.40;;;;;;20918851;28;20049;-56
2023/07/18 07:01:32;;;;;;;16.73;7.60;;;27.60;41.70;;;;;;20917083;28;20099;-58
2023/07/18 07:11:34;;;;;;;10.52;5.13;;;28.10;41.80;;;;;;20917319;28;20053;-57
2023/07/18 07:21:34;;;;;;;17.50;5.57;;;29.00;43.20;;;;;;20898121;28;20053;-56
2023/07/18 07:31:37;;;;;;;22.10;5.88;;;29.70;41.40;;;;;;20985860;28;20512;-57
2023/07/18 07:41:37;;;;;;;16.60;6.65;;;30.10;41.30;;;;;;20995137;28;20162;-56
2023/07/18 07:51:38;;;;;;;15.65;4.55;;;30.50;40.60;;;;;;20997322;28;20063;-58
2023/07/18 08:01:39;;;;;;;12.65;4.30;;;30.80;39.10;;;;;;20995123;28;20044;-56
2023/07/18 08:11:40;;;;;;;14.13;4.90;;;31.10;38.70;;;;;;20996034;28;20443;-56
2023/07/18 08:21:40;;;;;;;11.80;4.80;;;31.30;38.60;;;;;;20995718;28;20102;-59
2023/07/18 08:31:41;;;;;;;17.70;5.07;;;31.60;37.50;;;;;;20995857;28;20044;-56
2023/07/18 08:41:43;;;;;;;11.88;4.60;;;31.90;36.80;;;;;;20993774;28;20040;-57
2023/07/18 08:51:45;;;;;;;15.95;5.80;;;32.00;37.40;;;;;;21000569;28;20106;-56
2023/07/18 09:01:51;;;;;;;19.98;5.53;;;32.20;35.80;;;;;;21009372;28;20123;-57
2023/07/18 09:12:02;;;;;;;14.25;5.22;;;32.50;35.40;;;;;;21009273;28;20051;-59
2023/07/18 09:22:07;;;;;;;12.73;4.95;;;32.60;35.60;;;;;;21007277;28;20049;-59
2023/07/18 09:32:18;;;;;;;17.60;6.25;;;32.80;34.40;;;;;;21006158;28;20055;-59
2023/07/18 09:42:19;;;;;;;11.25;4.75;;;32.70;34.30;;;;;;21007535;28;20053;-58
2023/07/18 09:52:26;;;;;;;13.43;4.93;;;32.90;33.60;;;;;;21005228;28;20106;-57
2023/07/18 10:02:27;;;;;;;15.60;5.30;;;33.00;33.20;;;;;;21006177;28;20049;-56
2023/07/18 10:12:28;;;;;;;9.70;5.20;;;33.30;32.90;;;;;;21005022;28;20410;-61
2023/07/18 10:22:31;;;;;;;9.48;4.70;;;33.50;30.70;;;;;;21003752;28;20100;-56
2023/07/18 10:32:33;;;;;;;11.35;4.82;;;33.60;30.00;;;;;;21003574;28;20080;-55
2023/07/18 10:42:34;;;;;;;12.23;5.47;;;33.70;29.00;;;;;;21001417;28;20055;-55
2023/07/18 10:52:35;;;;;;;9.40;4.80;;;34.10;27.00;;;;;;21001765;28;20048;-57
2023/07/18 11:02:39;;;;;;;10.32;4.47;;;34.20;26.20;;;;;;21000970;28;20076;-61
2023/07/18 11:12:41;;;;;;;11.63;4.63;;;34.60;24.70;;;;;;20999549;28;20549;-57
2023/07/18 11:22:42;;;;;;;10.23;4.38;;;35.10;24.30;;;;;;20998439;28;20149;-56
2023/07/18 11:32:47;;;;;;;9.70;4.28;;;36.00;22.30;;;;;;20998710;28;20475;-55
2023/07/18 11:42:52;;;;;;;11.90;4.65;;;36.60;22.10;;;;;;20996660;28;20048;-57
2023/07/18 11:52:53;;;;;;;9.85;5.00;;;36.50;21.40;;;;;;20997464;28;20554;-56
2023/07/18 12:02:54;;;;;;;11.27;4.30;;;36.50;21.30;;;;;;20997171;28;20494;-56
2023/07/18 12:12:55;;;;;;;10.50;5.20;;;36.70;20.60;;;;;;20990277;28;20102;-56
2023/07/18 12:22:55;;;;;;;15.38;4.88;;;36.80;19.00;;;;;;20996024;28;20053;-56
2023/07/18 12:32:58;;;;;;;12.90;4.75;;;37.10;19.30;;;;;;21011543;28;20040;-58
2023/07/18 12:42:58;;;;;;;10.90;4.50;;;37.10;18.80;;;;;;21012149;28;20051;-55
2023/07/18 12:52:59;;;;;;;16.30;6.40;;;37.20;18.90;;;;;;21011178;28;20045;-56
2023/07/18 13:03:00;;;;;;;15.18;5.63;;;37.10;18.80;;;;;;21009219;28;20287;-57
2023/07/18 13:13:01;;;;;;;13.73;5.53;;;37.30;18.50;;;;;;21009507;28;20482;-56
2023/07/18 13:23:02;;;;;;;12.20;5.25;;;37.70;18.10;;;;;;21008392;28;20415;-56
2023/07/18 13:33:04;;;;;;;12.00;4.75;;;38.00;18.10;;;;;;21006460;28;20044;-56
2023/07/18 13:43:05;;;;;;;8.88;4.57;;;38.00;18.90;;;;;;21006365;28;20059;-59
2023/07/18 13:53:05;;;;;;;12.68;5.15;;;38.10;18.10;;;;;;21004703;28;20072;-56
2023/07/18 14:03:06;;;;;;;20.37;5.17;;;38.40;18.40;;;;;;21004406;28;20078;-57
2023/07/18 14:13:07;;;;;;;19.90;5.10;;;38.40;17.50;;;;;;21004876;28;20293;-56
2023/07/18 14:23:08;;;;;;;15.52;5.70;;;38.40;18.00;;;;;;21002756;28;20064;-58
2023/07/18 14:33:13;;;;;;;21.80;12.63;;;38.50;18.20;;;;;;21003357;28;20486;-57
2023/07/18 14:43:30;;;;;;;17.52;6.95;;;38.60;18.20;;;;;;21002111;28;20051;-55
2023/07/18 14:53:32;;;;;;;11.82;5.60;;;38.40;18.70;;;;;;21000945;28;20485;-56
2023/07/18 15:03:34;;;;;;;18.88;6.78;;;38.30;19.10;;;;;;21001701;28;20048;-56
2023/07/18 15:13:34;;;;;;;12.65;5.60;;;38.30;19.40;;;;;;21000475;28;20044;-57
2023/07/18 15:23:36;;;;;;;20.83;6.85;;;38.50;19.20;;;;;;20998837;28;20128;-60
2023/07/18 15:33:36;;;;;;;15.57;6.43;;;38.10;19.40;;;;;;20998964;28;20051;-57
2023/07/18 15:43:37;;;;;;;18.77;7.55;;;38.40;19.70;;;;;;20996748;28;20036;-59
2023/07/18 15:53:38;;;;;;;19.23;5.80;;;38.20;19.20;;;;;;20996330;28;20140;-59
2023/07/18 16:03:39;;;;;;;21.42;6.47;;;38.50;19.30;;;;;;20996860;28;20821;-57
2023/07/18 16:13:42;;;;;;;15.35;6.53;;;38.30;19.40;;;;;;20996750;28;20044;-60
2023/07/18 16:23:42;;;;;;;21.65;7.53;;;38.10;20.10;;;;;;20995566;28;20056;-60
2023/07/18 16:33:43;;;;;;;16.13;6.30;;;38.20;20.20;;;;;;20994467;28;20087;-58
2023/07/18 16:43:44;;;;;;;16.00;6.68;;;38.30;20.40;;;;;;20994461;28;20410;-59
2023/07/18 16:53:45;;;;;;;14.13;6.97;;;38.20;20.70;;;;;;20995288;28;20047;-61
2023/07/18 17:03:45;;;;;;;17.20;7.05;;;38.10;19.60;;;;;;20994839;28;20295;-59
2023/07/18 17:13:46;;;;;;;20.02;7.45;;;38.00;20.20;;;;;;21001650;28;20436;-58
2023/07/18 17:23:47;;;;;;;20.85;7.38;;;38.10;19.90;;;;;;21008368;28;20101;-60
2023/07/18 17:33:48;;;;;;;22.60;7.53;;;37.70;19.80;;;;;;21008157;28;20114;-57
2023/07/18 17:43:49;;;;;;;16.90;6.97;;;37.30;20.00;;;;;;21007780;28;20374;-57
2023/07/18 17:53:50;;;;;;;22.10;6.82;;;37.20;20.10;;;;;;21007301;28;20297;-57
2023/07/18 18:03:51;;;;;;;18.50;7.40;;;37.20;20.60;;;;;;21006031;28;20122;-57
2023/07/18 18:13:52;;;;;;;32.47;8.25;;;37.10;20.60;;;;;;21005410;28;20116;-57
2023/07/18 18:23:53;;;;;;;23.48;8.45;;;37.10;20.80;;;;;;21003482;28;20399;-57
2023/07/18 18:33:54;;;;;;;18.85;7.03;;;36.80;21.10;;;;;;21002792;28;20045;-56
2023/07/18 18:43:55;;;;;;;27.17;7.57;;;36.70;21.20;;;;;;21003520;28;20566;-59
2023/07/18 18:53:55;;;;;;;25.27;8.80;;;36.50;21.80;;;;;;21002052;28;20110;-57
2023/07/18 19:03:56;;;;;;;19.83;6.88;;;36.40;22.30;;;;;;21001783;28;20333;-56
2023/07/18 19:13:59;;;;;;;20.73;7.07;;;36.20;22.10;;;;;;20999697;28;20041;-57
2023/07/18 19:24:00;;;;;;;21.48;7.15;;;36.00;22.10;;;;;;20999274;28;20055;-56
2023/07/18 19:34:00;;;;;;;23.30;8.27;;;35.80;22.00;;;;;;20998731;28;20047;-57
2023/07/18 19:44:04;;;;;;;21.80;7.03;;;35.50;21.90;;;;;;20998102;28;20044;-57
2023/07/18 19:54:05;;;;;;;24.48;8.13;;;35.20;22.20;;;;;;20997407;28;20052;-57
2023/07/18 20:04:05;;;;;;;22.60;8.30;;;35.10;22.60;;;;;;20996798;28;20111;-58
2023/07/18 20:14:06;;;;;;;18.50;7.45;;;34.90;23.00;;;;;;20995139;28;20058;-57
2023/07/18 20:24:07;;;;;;;21.48;7.80;;;34.80;23.40;;;;;;20996417;28;20080;-57
2023/07/18 20:34:08;;;;;;;21.48;7.72;;;34.60;23.70;;;;;;20995444;28;20502;-58
2023/07/18 20:44:09;;;;;;;25.45;8.15;;;34.40;24.00;;;;;;20995011;28;20431;-57
2023/07/18 20:54:10;;;;;;;23.02;7.13;;;34.30;24.10;;;;;;21011055;28;20120;-58
2023/07/18 21:04:11;;;;;;;17.85;7.22;;;34.10;24.40;;;;;;21009148;28;20073;-57
2023/07/18 21:14:12;;;;;;;21.13;6.90;;;34.00;24.80;;;;;;21008625;28;20083;-57
2023/07/18 21:24:14;;;;;;;21.77;7.50;;;33.90;24.80;;;;;;21007720;28;20064;-57
2023/07/18 21:34:15;;;;;;;17.02;7.05;;;33.70;24.90;;;;;;21008228;28;20041;-57
2023/07/18 21:44:15;;;;;;;24.67;7.32;;;33.70;25.00;;;;;;21007125;28;20047;-56
2023/07/18 21:54:16;;;;;;;18.15;7.35;;;33.70;25.00;;;;;;21006191;28;20463;-57
2023/07/18 22:04:17;;;;;;;16.83;6.55;;;33.50;24.90;;;;;;21004523;28;20056;-58
2023/07/18 22:14:17;;;;;;;16.95;6.15;;;33.40;24.90;;;;;;21004607;28;20040;-57
2023/07/18 22:24:18;;;;;;;22.52;7.28;;;33.40;24.90;;;;;;21004131;28;20049;-56
2023/07/18 22:34:19;;;;;;;20.38;7.68;;;33.30;24.90;;;;;;21002837;28;20040;-57
2023/07/18 22:44:20;;;;;;;23.27;7.80;;;33.10;25.40;;;;;;21003295;28;20058;-58
2023/07/18 22:54:21;;;;;;;21.27;8.57;;;33.10;25.20;;;;;;21001343;28;20044;-57
2023/07/18 23:04:22;;;;;;;31.00;8.68;;;33.10;25.60;;;;;;21001676;28;20080;-58
2023/07/18 23:14:23;;;;;;;23.48;7.72;;;32.90;25.70;;;;;;20999967;28;20044;-57
2023/07/18 23:24:23;;;;;;;20.33;6.93;;;32.80;25.80;;;;;;20999843;28;20102;-57
2023/07/18 23:34:24;;;;;;;17.30;6.22;;;32.60;25.70;;;;;;20999522;28;20506;-58
2023/07/18 23:44:25;;;;;;;14.70;6.07;;;32.60;25.70;;;;;;20998797;28;20045;-57
2023/07/18 23:54:26;;;;;;;19.05;5.68;;;32.50;25.50;;;;;;20996872;28;20036;-57
